sensor_id;sensor_type;location;lat;lon;timestamp;P1;durP1;ratioP1;P2;durP2;ratioP2
6378;SDS011;3222;48.858;10.128;2022-08-20T00:01:28;9.93;;;6.90;;
6378;SDS011;3222;48.858;10.128;2022-08-20T00:03:54;7.77;;;6.97;;
6378;SDS011;3222;48.858;10.128;2022-08-20T00:06:21;7.53;;;6.83;;
6378;SDS011;3222;48.858;10.128;2022-08-20T00:08:47;9.27;;;7.40;;
6378;SDS011;3222;48.858;10.128;2022-08-20T00:11:18;7.07;;;6.47;;
6378;SDS011;3222;48.858;10.128;2022-08-20T00:13:48;7.43;;;6.73;;
6378;SDS011;3222;48.858;10.128;2022-08-20T00:16:16;7.70;;;7.00;;
6378;SDS011;3222;48.858;10.128;2022-08-20T00:18:44;7.97;;;7.17;;
6378;SDS011;3222;48.858;10.128;2022-08-20T00:21:11;8.33;;;6.80;;
6378;SDS011;3222;48.858;10.128;2022-08-20T00:23:39;8.63;;;7.33;;
6378;SDS011;3222;48.858;10.128;2022-08-20T00:26:06;8.10;;;7.30;;
6378;SDS011;3222;48.858;10.128;2022-08-20T00:28:34;8.37;;;7.57;;
6378;SDS011;3222;48.858;10.128;2022-08-20T00:31:01;8.57;;;7.60;;
6378;SDS011;3222;48.858;10.128;2022-08-20T00:33:31;7.27;;;6.57;;
6378;SDS011;3222;48.858;10.128;2022-08-20T00:35:58;8.07;;;6.50;;
6378;SDS011;3222;48.858;10.128;2022-08-20T00:38:30;8.70;;;6.57;;
6378;SDS011;3222;48.858;10.128;2022-08-20T00:40:57;8.27;;;6.23;;
6378;SDS011;3222;48.858;10.128;2022-08-20T00:43:27;6.43;;;5.83;;
6378;SDS011;3222;48.858;10.128;2022-08-20T00:46:03;10.47;;;6.67;;
6378;SDS011;3222;48.858;10.128;2022-08-20T00:48:33;7.30;;;6.50;;
6378;SDS011;3222;48.858;10.128;2022-08-20T00:51:06;19.80;;;7.43;;
6378;SDS011;3222;48.858;10.128;2022-08-20T00:53:34;6.97;;;6.37;;
6378;SDS011;3222;48.858;10.128;2022-08-20T00:56:02;7.10;;;6.40;;
6378;SDS011;3222;48.858;10.128;2022-08-20T00:58:30;7.10;;;6.37;;
6378;SDS011;3222;48.858;10.128;2022-08-20T01:00:57;8.10;;;6.60;;
6378;SDS011;3222;48.858;10.128;2022-08-20T01:03:23;7.60;;;6.63;;
6378;SDS011;3222;48.858;10.128;2022-08-20T01:05:49;9.27;;;6.70;;
6378;SDS011;3222;48.858;10.128;2022-08-20T01:08:17;6.73;;;6.13;;
6378;SDS011;3222;48.858;10.128;2022-08-20T01:10:45;6.73;;;6.13;;
6378;SDS011;3222;48.858;10.128;2022-08-20T01:13:18;6.50;;;5.93;;
6378;SDS011;3222;48.858;10.128;2022-08-20T01:15:47;6.80;;;6.13;;
6378;SDS011;3222;48.858;10.128;2022-08-20T01:18:16;11.00;;;7.33;;
6378;SDS011;3222;48.858;10.128;2022-08-20T01:20:49;11.50;;;7.37;;
6378;SDS011;3222;48.858;10.128;2022-08-20T01:23:20;7.57;;;6.80;;
6378;SDS011;3222;48.858;10.128;2022-08-20T01:26:07;6.80;;;6.20;;
6378;SDS011;3222;48.858;10.128;2022-08-20T01:31:09;7.10;;;6.50;;
6378;SDS011;3222;48.858;10.128;2022-08-20T01:33:40;7.37;;;6.20;;
6378;SDS011;3222;48.858;10.128;2022-08-20T01:36:07;7.83;;;6.57;;
6378;SDS011;3222;48.858;10.128;2022-08-20T01:38:34;7.33;;;6.63;;
6378;SDS011;3222;48.858;10.128;2022-08-20T01:43:51;6.90;;;6.30;;
6378;SDS011;3222;48.858;10.128;2022-08-20T01:46:40;8.00;;;6.27;;
6378;SDS011;3222;48.858;10.128;2022-08-20T01:49:11;7.50;;;6.23;;
6378;SDS011;3222;48.858;10.128;2022-08-20T01:51:43;7.13;;;6.43;;
6378;SDS011;3222;48.858;10.128;2022-08-20T01:54:10;6.93;;;5.80;;
6378;SDS011;3222;48.858;10.128;2022-08-20T01:56:38;6.20;;;5.67;;
6378;SDS011;3222;48.858;10.128;2022-08-20T01:59:23;6.40;;;5.63;;
6378;SDS011;3222;48.858;10.128;2022-08-20T02:01:49;6.30;;;5.23;;
6378;SDS011;3222;48.858;10.128;2022-08-20T02:04:15;6.63;;;5.57;;
6378;SDS011;3222;48.858;10.128;2022-08-20T02:06:43;5.60;;;5.10;;
6378;SDS011;3222;48.858;10.128;2022-08-20T02:09:12;7.30;;;5.20;;
6378;SDS011;3222;48.858;10.128;2022-08-20T02:11:38;5.43;;;4.93;;
6378;SDS011;3222;48.858;10.128;2022-08-20T02:14:05;6.27;;;5.63;;
6378;SDS011;3222;48.858;10.128;2022-08-20T02:16:34;5.87;;;5.37;;
6378;SDS011;3222;48.858;10.128;2022-08-20T02:19:15;8.87;;;5.00;;
6378;SDS011;3222;48.858;10.128;2022-08-20T02:21:48;5.57;;;5.00;;
6378;SDS011;3222;48.858;10.128;2022-08-20T02:24:17;6.37;;;4.70;;
6378;SDS011;3222;48.858;10.128;2022-08-20T02:26:44;5.63;;;4.83;;
6378;SDS011;3222;48.858;10.128;2022-08-20T02:29:11;6.93;;;4.80;;
6378;SDS011;3222;48.858;10.128;2022-08-20T02:31:38;6.20;;;5.20;;
6378;SDS011;3222;48.858;10.128;2022-08-20T02:34:05;5.20;;;4.70;;
6378;SDS011;3222;48.858;10.128;2022-08-20T02:36:33;4.83;;;4.43;;
6378;SDS011;3222;48.858;10.128;2022-08-20T02:39:02;5.43;;;4.93;;
6378;SDS011;3222;48.858;10.128;2022-08-20T02:41:30;6.17;;;4.70;;
6378;SDS011;3222;48.858;10.128;2022-08-20T02:43:56;5.20;;;4.60;;
6378;SDS011;3222;48.858;10.128;2022-08-20T02:46:22;5.00;;;4.30;;
6378;SDS011;3222;48.858;10.128;2022-08-20T02:48:48;4.60;;;4.20;;
6378;SDS011;3222;48.858;10.128;2022-08-20T02:51:13;4.20;;;3.80;;
6378;SDS011;3222;48.858;10.128;2022-08-20T02:53:39;4.50;;;3.87;;
6378;SDS011;3222;48.858;10.128;2022-08-20T02:56:08;4.00;;;3.60;;
6378;SDS011;3222;48.858;10.128;2022-08-20T02:58:34;3.87;;;3.57;;
6378;SDS011;3222;48.858;10.128;2022-08-20T03:01:01;4.20;;;3.83;;
6378;SDS011;3222;48.858;10.128;2022-08-20T03:03:28;4.10;;;3.80;;
6378;SDS011;3222;48.858;10.128;2022-08-20T03:05:55;4.10;;;3.70;;
6378;SDS011;3222;48.858;10.128;2022-08-20T03:08:22;7.27;;;3.83;;
6378;SDS011;3222;48.858;10.128;2022-08-20T03:10:49;4.17;;;3.80;;
6378;SDS011;3222;48.858;10.128;2022-08-20T03:13:15;3.63;;;3.33;;
6378;SDS011;3222;48.858;10.128;2022-08-20T03:15:44;6.10;;;4.40;;
6378;SDS011;3222;48.858;10.128;2022-08-20T03:18:11;4.40;;;4.03;;
6378;SDS011;3222;48.858;10.128;2022-08-20T03:20:38;4.43;;;4.03;;
6378;SDS011;3222;48.858;10.128;2022-08-20T03:23:04;3.83;;;3.50;;
6378;SDS011;3222;48.858;10.128;2022-08-20T03:25:30;4.17;;;3.33;;
6378;SDS011;3222;48.858;10.128;2022-08-20T03:27:57;3.60;;;3.30;;
6378;SDS011;3222;48.858;10.128;2022-08-20T03:30:24;3.90;;;3.60;;
6378;SDS011;3222;48.858;10.128;2022-08-20T03:32:51;3.67;;;3.37;;
6378;SDS011;3222;48.858;10.128;2022-08-20T03:35:18;3.57;;;3.27;;
6378;SDS011;3222;48.858;10.128;2022-08-20T03:37:46;3.77;;;3.47;;
6378;SDS011;3222;48.858;10.128;2022-08-20T03:40:14;4.77;;;3.17;;
6378;SDS011;3222;48.858;10.128;2022-08-20T03:42:43;5.43;;;3.57;;
6378;SDS011;3222;48.858;10.128;2022-08-20T03:45:09;6.13;;;3.27;;
6378;SDS011;3222;48.858;10.128;2022-08-20T03:47:40;3.80;;;3.40;;
6378;SDS011;3222;48.858;10.128;2022-08-20T03:50:07;3.50;;;3.20;;
6378;SDS011;3222;48.858;10.128;2022-08-20T03:52:35;3.43;;;3.13;;
6378;SDS011;3222;48.858;10.128;2022-08-20T03:55:01;5.73;;;3.43;;
6378;SDS011;3222;48.858;10.128;2022-08-20T03:57:28;3.20;;;3.00;;
6378;SDS011;3222;48.858;10.128;2022-08-20T03:59:53;3.83;;;2.93;;
6378;SDS011;3222;48.858;10.128;2022-08-20T04:02:19;3.67;;;3.00;;
6378;SDS011;3222;48.858;10.128;2022-08-20T04:04:45;3.30;;;3.00;;
6378;SDS011;3222;48.858;10.128;2022-08-20T04:07:21;2.83;;;2.63;;
6378;SDS011;3222;48.858;10.128;2022-08-20T04:09:52;3.20;;;3.00;;
6378;SDS011;3222;48.858;10.128;2022-08-20T04:12:19;3.50;;;3.00;;
6378;SDS011;3222;48.858;10.128;2022-08-20T04:14:46;3.10;;;2.90;;
6378;SDS011;3222;48.858;10.128;2022-08-20T04:17:13;2.73;;;2.53;;
6378;SDS011;3222;48.858;10.128;2022-08-20T04:19:41;3.10;;;2.70;;
6378;SDS011;3222;48.858;10.128;2022-08-20T04:22:08;3.07;;;2.77;;
6378;SDS011;3222;48.858;10.128;2022-08-20T04:24:38;4.23;;;2.97;;
6378;SDS011;3222;48.858;10.128;2022-08-20T04:27:05;3.37;;;2.70;;
6378;SDS011;3222;48.858;10.128;2022-08-20T04:29:33;2.73;;;2.53;;
6378;SDS011;3222;48.858;10.128;2022-08-20T04:31:59;3.63;;;2.43;;
6378;SDS011;3222;48.858;10.128;2022-08-20T04:34:26;3.00;;;2.80;;
6378;SDS011;3222;48.858;10.128;2022-08-20T04:36:53;3.37;;;2.77;;
6378;SDS011;3222;48.858;10.128;2022-08-20T04:39:19;3.43;;;2.90;;
6378;SDS011;3222;48.858;10.128;2022-08-20T04:41:44;2.50;;;2.30;;
6378;SDS011;3222;48.858;10.128;2022-08-20T04:44:11;2.60;;;2.40;;
6378;SDS011;3222;48.858;10.128;2022-08-20T04:46:37;2.83;;;2.63;;
6378;SDS011;3222;48.858;10.128;2022-08-20T04:49:04;2.37;;;2.20;;
6378;SDS011;3222;48.858;10.128;2022-08-20T04:51:31;2.40;;;2.20;;
6378;SDS011;3222;48.858;10.128;2022-08-20T04:53:58;2.17;;;2.07;;
6378;SDS011;3222;48.858;10.128;2022-08-20T04:56:25;2.53;;;2.43;;
6378;SDS011;3222;48.858;10.128;2022-08-20T04:58:53;2.20;;;2.10;;
6378;SDS011;3222;48.858;10.128;2022-08-20T05:01:20;3.27;;;2.30;;
6378;SDS011;3222;48.858;10.128;2022-08-20T05:03:47;3.73;;;2.10;;
6378;SDS011;3222;48.858;10.128;2022-08-20T05:06:14;2.70;;;2.50;;
6378;SDS011;3222;48.858;10.128;2022-08-20T05:08:41;2.73;;;2.10;;
6378;SDS011;3222;48.858;10.128;2022-08-20T05:11:08;3.43;;;2.30;;
6378;SDS011;3222;48.858;10.128;2022-08-20T05:13:35;3.43;;;2.07;;
6378;SDS011;3222;48.858;10.128;2022-08-20T05:16:01;2.27;;;2.17;;
6378;SDS011;3222;48.858;10.128;2022-08-20T05:18:28;3.07;;;2.50;;
6378;SDS011;3222;48.858;10.128;2022-08-20T05:20:59;2.20;;;2.10;;
6378;SDS011;3222;48.858;10.128;2022-08-20T05:23:31;2.00;;;1.90;;
6378;SDS011;3222;48.858;10.128;2022-08-20T05:25:58;2.40;;;2.20;;
6378;SDS011;3222;48.858;10.128;2022-08-20T05:28:24;2.60;;;1.80;;
6378;SDS011;3222;48.858;10.128;2022-08-20T05:30:56;2.17;;;1.97;;
6378;SDS011;3222;48.858;10.128;2022-08-20T05:33:23;2.20;;;2.00;;
6378;SDS011;3222;48.858;10.128;2022-08-20T05:35:50;2.40;;;2.20;;
6378;SDS011;3222;48.858;10.128;2022-08-20T05:38:17;2.13;;;1.93;;
6378;SDS011;3222;48.858;10.128;2022-08-20T05:40:45;2.30;;;2.10;;
6378;SDS011;3222;48.858;10.128;2022-08-20T05:43:11;2.93;;;2.37;;
6378;SDS011;3222;48.858;10.128;2022-08-20T05:45:38;2.30;;;2.10;;
6378;SDS011;3222;48.858;10.128;2022-08-20T05:48:12;2.43;;;2.23;;
6378;SDS011;3222;48.858;10.128;2022-08-20T05:50:40;4.83;;;3.00;;
6378;SDS011;3222;48.858;10.128;2022-08-20T05:53:07;2.37;;;2.17;;
6378;SDS011;3222;48.858;10.128;2022-08-20T05:55:33;2.13;;;2.03;;
6378;SDS011;3222;48.858;10.128;2022-08-20T05:58:02;2.30;;;2.20;;
6378;SDS011;3222;48.858;10.128;2022-08-20T06:00:30;2.60;;;2.40;;
6378;SDS011;3222;48.858;10.128;2022-08-20T06:02:57;2.23;;;2.00;;
6378;SDS011;3222;48.858;10.128;2022-08-20T06:05:41;2.20;;;2.10;;
6378;SDS011;3222;48.858;10.128;2022-08-20T06:08:07;2.67;;;2.47;;
6378;SDS011;3222;48.858;10.128;2022-08-20T06:10:34;2.67;;;2.47;;
6378;SDS011;3222;48.858;10.128;2022-08-20T06:13:01;3.73;;;2.87;;
6378;SDS011;3222;48.858;10.128;2022-08-20T06:15:27;3.17;;;2.87;;
6378;SDS011;3222;48.858;10.128;2022-08-20T06:17:54;3.53;;;2.93;;
6378;SDS011;3222;48.858;10.128;2022-08-20T06:20:20;3.33;;;3.07;;
6378;SDS011;3222;48.858;10.128;2022-08-20T06:22:45;2.80;;;2.60;;
6378;SDS011;3222;48.858;10.128;2022-08-20T06:25:11;2.80;;;2.60;;
6378;SDS011;3222;48.858;10.128;2022-08-20T06:27:37;2.60;;;2.40;;
6378;SDS011;3222;48.858;10.128;2022-08-20T06:30:05;3.20;;;3.00;;
6378;SDS011;3222;48.858;10.128;2022-08-20T06:32:31;4.00;;;2.40;;
6378;SDS011;3222;48.858;10.128;2022-08-20T06:34:57;3.27;;;2.97;;
6378;SDS011;3222;48.858;10.128;2022-08-20T06:37:28;3.50;;;2.80;;
6378;SDS011;3222;48.858;10.128;2022-08-20T06:39:58;3.43;;;2.80;;
6378;SDS011;3222;48.858;10.128;2022-08-20T06:42:27;3.87;;;3.07;;
6378;SDS011;3222;48.858;10.128;2022-08-20T06:44:53;3.13;;;2.83;;
6378;SDS011;3222;48.858;10.128;2022-08-20T06:47:19;3.33;;;3.03;;
6378;SDS011;3222;48.858;10.128;2022-08-20T06:49:46;3.00;;;2.80;;
6378;SDS011;3222;48.858;10.128;2022-08-20T06:52:13;3.70;;;3.40;;
6378;SDS011;3222;48.858;10.128;2022-08-20T06:54:42;3.97;;;2.97;;
6378;SDS011;3222;48.858;10.128;2022-08-20T06:57:09;3.40;;;3.10;;
6378;SDS011;3222;48.858;10.128;2022-08-20T06:59:34;3.80;;;3.03;;
6378;SDS011;3222;48.858;10.128;2022-08-20T07:02:01;3.40;;;3.10;;
6378;SDS011;3222;48.858;10.128;2022-08-20T07:04:28;3.00;;;2.80;;
6378;SDS011;3222;48.858;10.128;2022-08-20T07:06:54;2.83;;;2.63;;
6378;SDS011;3222;48.858;10.128;2022-08-20T07:09:22;3.40;;;3.07;;
6378;SDS011;3222;48.858;10.128;2022-08-20T07:11:49;3.10;;;2.87;;
6378;SDS011;3222;48.858;10.128;2022-08-20T07:14:16;3.17;;;2.70;;
6378;SDS011;3222;48.858;10.128;2022-08-20T07:16:42;2.50;;;2.30;;
6378;SDS011;3222;48.858;10.128;2022-08-20T07:19:08;3.00;;;2.60;;
6378;SDS011;3222;48.858;10.128;2022-08-20T07:21:34;3.37;;;2.80;;
6378;SDS011;3222;48.858;10.128;2022-08-20T07:24:00;2.53;;;2.40;;
6378;SDS011;3222;48.858;10.128;2022-08-20T07:26:27;2.97;;;2.77;;
6378;SDS011;3222;48.858;10.128;2022-08-20T07:28:53;3.00;;;2.80;;
6378;SDS011;3222;48.858;10.128;2022-08-20T07:31:19;6.63;;;2.93;;
6378;SDS011;3222;48.858;10.128;2022-08-20T07:34:03;2.90;;;2.70;;
6378;SDS011;3222;48.858;10.128;2022-08-20T07:36:29;2.97;;;2.77;;
6378;SDS011;3222;48.858;10.128;2022-08-20T07:38:55;2.77;;;2.57;;
6378;SDS011;3222;48.858;10.128;2022-08-20T07:41:21;2.90;;;2.70;;
6378;SDS011;3222;48.858;10.128;2022-08-20T07:43:46;2.57;;;2.30;;
6378;SDS011;3222;48.858;10.128;2022-08-20T07:46:13;2.90;;;2.60;;
6378;SDS011;3222;48.858;10.128;2022-08-20T07:48:42;3.07;;;2.83;;
6378;SDS011;3222;48.858;10.128;2022-08-20T07:51:11;3.13;;;2.67;;
6378;SDS011;3222;48.858;10.128;2022-08-20T07:53:41;2.87;;;2.67;;
6378;SDS011;3222;48.858;10.128;2022-08-20T07:56:07;3.20;;;2.90;;
6378;SDS011;3222;48.858;10.128;2022-08-20T07:58:42;3.03;;;2.80;;
6378;SDS011;3222;48.858;10.128;2022-08-20T08:01:14;5.17;;;4.03;;
6378;SDS011;3222;48.858;10.128;2022-08-20T08:03:41;3.70;;;3.40;;
6378;SDS011;3222;48.858;10.128;2022-08-20T08:06:07;4.00;;;3.23;;
6378;SDS011;3222;48.858;10.128;2022-08-20T08:08:33;3.80;;;3.50;;
6378;SDS011;3222;48.858;10.128;2022-08-20T08:11:01;3.93;;;3.07;;
6378;SDS011;3222;48.858;10.128;2022-08-20T08:13:30;4.83;;;3.47;;
6378;SDS011;3222;48.858;10.128;2022-08-20T08:16:00;4.67;;;2.70;;
6378;SDS011;3222;48.858;10.128;2022-08-20T08:18:29;2.97;;;2.77;;
6378;SDS011;3222;48.858;10.128;2022-08-20T08:21:02;3.27;;;2.97;;
6378;SDS011;3222;48.858;10.128;2022-08-20T08:23:29;3.43;;;3.13;;
6378;SDS011;3222;48.858;10.128;2022-08-20T08:25:55;4.13;;;3.53;;
6378;SDS011;3222;48.858;10.128;2022-08-20T08:28:23;3.30;;;3.03;;
6378;SDS011;3222;48.858;10.128;2022-08-20T08:30:49;3.93;;;3.07;;
6378;SDS011;3222;48.858;10.128;2022-08-20T08:33:25;3.77;;;3.47;;
6378;SDS011;3222;48.858;10.128;2022-08-20T08:35:52;3.03;;;2.80;;
6378;SDS011;3222;48.858;10.128;2022-08-20T08:38:20;3.23;;;2.97;;
6378;SDS011;3222;48.858;10.128;2022-08-20T08:40:47;3.23;;;3.03;;
6378;SDS011;3222;48.858;10.128;2022-08-20T08:43:15;3.80;;;3.50;;
6378;SDS011;3222;48.858;10.128;2022-08-20T08:45:44;4.00;;;3.60;;
6378;SDS011;3222;48.858;10.128;2022-08-20T08:48:12;4.43;;;3.50;;
6378;SDS011;3222;48.858;10.128;2022-08-20T08:50:40;3.37;;;3.10;;
6378;SDS011;3222;48.858;10.128;2022-08-20T08:53:10;3.43;;;3.13;;
6378;SDS011;3222;48.858;10.128;2022-08-20T08:55:42;5.47;;;3.07;;
6378;SDS011;3222;48.858;10.128;2022-08-20T08:58:09;3.27;;;2.97;;
6378;SDS011;3222;48.858;10.128;2022-08-20T09:00:35;3.30;;;3.00;;
6378;SDS011;3222;48.858;10.128;2022-08-20T09:05:51;3.07;;;2.87;;
6378;SDS011;3222;48.858;10.128;2022-08-20T09:08:19;2.87;;;2.67;;
6378;SDS011;3222;48.858;10.128;2022-08-20T09:10:54;3.20;;;2.90;;
6378;SDS011;3222;48.858;10.128;2022-08-20T09:13:30;3.27;;;3.07;;
6378;SDS011;3222;48.858;10.128;2022-08-20T09:15:56;3.27;;;3.00;;
6378;SDS011;3222;48.858;10.128;2022-08-20T09:18:21;2.83;;;2.53;;
6378;SDS011;3222;48.858;10.128;2022-08-20T09:20:47;2.90;;;2.70;;
6378;SDS011;3222;48.858;10.128;2022-08-20T09:23:13;3.97;;;3.20;;
6378;SDS011;3222;48.858;10.128;2022-08-20T09:25:39;3.20;;;3.00;;
6378;SDS011;3222;48.858;10.128;2022-08-20T09:28:04;2.97;;;2.67;;
6378;SDS011;3222;48.858;10.128;2022-08-20T09:30:30;3.30;;;2.97;;
6378;SDS011;3222;48.858;10.128;2022-08-20T09:32:59;3.43;;;3.00;;
6378;SDS011;3222;48.858;10.128;2022-08-20T09:35:25;3.10;;;2.80;;
6378;SDS011;3222;48.858;10.128;2022-08-20T09:37:51;3.40;;;2.60;;
6378;SDS011;3222;48.858;10.128;2022-08-20T09:40:18;3.03;;;2.83;;
6378;SDS011;3222;48.858;10.128;2022-08-20T09:42:43;2.83;;;2.63;;
6378;SDS011;3222;48.858;10.128;2022-08-20T09:45:10;2.73;;;2.53;;
6378;SDS011;3222;48.858;10.128;2022-08-20T09:47:37;2.53;;;2.33;;
6378;SDS011;3222;48.858;10.128;2022-08-20T09:50:03;3.17;;;2.87;;
6378;SDS011;3222;48.858;10.128;2022-08-20T09:52:30;3.40;;;2.60;;
6378;SDS011;3222;48.858;10.128;2022-08-20T09:55:03;3.33;;;3.03;;
6378;SDS011;3222;48.858;10.128;2022-08-20T09:57:40;3.30;;;3.00;;
6378;SDS011;3222;48.858;10.128;2022-08-20T10:00:07;3.87;;;2.90;;
6378;SDS011;3222;48.858;10.128;2022-08-20T10:02:39;3.20;;;2.90;;
6378;SDS011;3222;48.858;10.128;2022-08-20T10:05:05;2.70;;;2.50;;
6378;SDS011;3222;48.858;10.128;2022-08-20T10:07:33;3.00;;;2.80;;
6378;SDS011;3222;48.858;10.128;2022-08-20T10:09:59;3.10;;;2.70;;
6378;SDS011;3222;48.858;10.128;2022-08-20T10:12:25;3.00;;;2.80;;
6378;SDS011;3222;48.858;10.128;2022-08-20T10:14:51;2.70;;;2.50;;
6378;SDS011;3222;48.858;10.128;2022-08-20T10:17:16;3.20;;;2.90;;
6378;SDS011;3222;48.858;10.128;2022-08-20T10:19:42;2.63;;;2.43;;
6378;SDS011;3222;48.858;10.128;2022-08-20T10:22:08;2.77;;;2.57;;
6378;SDS011;3222;48.858;10.128;2022-08-20T10:24:33;2.70;;;2.50;;
6378;SDS011;3222;48.858;10.128;2022-08-20T10:27:00;2.60;;;2.40;;
6378;SDS011;3222;48.858;10.128;2022-08-20T10:29:26;2.63;;;2.43;;
6378;SDS011;3222;48.858;10.128;2022-08-20T10:31:53;1.90;;;1.80;;
6378;SDS011;3222;48.858;10.128;2022-08-20T10:34:21;2.10;;;2.00;;
6378;SDS011;3222;48.858;10.128;2022-08-20T10:36:50;2.17;;;2.00;;
6378;SDS011;3222;48.858;10.128;2022-08-20T10:39:15;2.07;;;1.97;;
6378;SDS011;3222;48.858;10.128;2022-08-20T10:41:41;2.10;;;2.00;;
6378;SDS011;3222;48.858;10.128;2022-08-20T10:44:07;2.40;;;2.10;;
6378;SDS011;3222;48.858;10.128;2022-08-20T10:46:33;2.40;;;2.20;;
6378;SDS011;3222;48.858;10.128;2022-08-20T10:48:59;1.80;;;1.70;;
6378;SDS011;3222;48.858;10.128;2022-08-20T10:51:24;2.20;;;2.00;;
6378;SDS011;3222;48.858;10.128;2022-08-20T10:53:50;2.10;;;1.90;;
6378;SDS011;3222;48.858;10.128;2022-08-20T10:56:16;1.87;;;1.77;;
6378;SDS011;3222;48.858;10.128;2022-08-20T10:58:41;2.10;;;2.00;;
6378;SDS011;3222;48.858;10.128;2022-08-20T11:01:07;1.90;;;1.80;;
6378;SDS011;3222;48.858;10.128;2022-08-20T11:03:33;2.30;;;1.93;;
6378;SDS011;3222;48.858;10.128;2022-08-20T11:05:59;1.80;;;1.70;;
6378;SDS011;3222;48.858;10.128;2022-08-20T11:08:25;2.10;;;2.00;;
6378;SDS011;3222;48.858;10.128;2022-08-20T11:10:51;2.00;;;1.90;;
6378;SDS011;3222;48.858;10.128;2022-08-20T11:13:17;2.20;;;2.10;;
6378;SDS011;3222;48.858;10.128;2022-08-20T11:15:43;7.67;;;2.03;;
6378;SDS011;3222;48.858;10.128;2022-08-20T11:18:10;2.50;;;2.30;;
6378;SDS011;3222;48.858;10.128;2022-08-20T11:20:37;2.20;;;2.10;;
6378;SDS011;3222;48.858;10.128;2022-08-20T11:23:03;2.33;;;2.20;;
6378;SDS011;3222;48.858;10.128;2022-08-20T11:25:29;2.60;;;2.40;;
6378;SDS011;3222;48.858;10.128;2022-08-20T11:27:55;2.40;;;2.30;;
6378;SDS011;3222;48.858;10.128;2022-08-20T11:30:26;2.50;;;2.30;;
6378;SDS011;3222;48.858;10.128;2022-08-20T11:32:54;2.43;;;2.23;;
6378;SDS011;3222;48.858;10.128;2022-08-20T11:35:21;2.93;;;2.00;;
6378;SDS011;3222;48.858;10.128;2022-08-20T11:37:51;2.20;;;2.10;;
6378;SDS011;3222;48.858;10.128;2022-08-20T11:40:19;2.10;;;2.00;;
6378;SDS011;3222;48.858;10.128;2022-08-20T11:42:44;2.00;;;1.90;;
6378;SDS011;3222;48.858;10.128;2022-08-20T11:45:12;2.17;;;2.07;;
6378;SDS011;3222;48.858;10.128;2022-08-20T11:47:38;2.50;;;2.30;;
6378;SDS011;3222;48.858;10.128;2022-08-20T11:50:14;3.10;;;1.90;;
6378;SDS011;3222;48.858;10.128;2022-08-20T11:52:43;2.80;;;1.47;;
6378;SDS011;3222;48.858;10.128;2022-08-20T11:55:13;3.43;;;1.37;;
6378;SDS011;3222;48.858;10.128;2022-08-20T11:57:41;3.43;;;1.30;;
6378;SDS011;3222;48.858;10.128;2022-08-20T12:00:10;7.87;;;2.20;;
6378;SDS011;3222;48.858;10.128;2022-08-20T12:02:39;4.37;;;1.40;;
6378;SDS011;3222;48.858;10.128;2022-08-20T12:05:06;2.43;;;1.00;;
6378;SDS011;3222;48.858;10.128;2022-08-20T12:07:32;4.60;;;1.47;;
6378;SDS011;3222;48.858;10.128;2022-08-20T12:09:58;1.60;;;0.90;;
6378;SDS011;3222;48.858;10.128;2022-08-20T12:12:24;4.13;;;1.20;;
6378;SDS011;3222;48.858;10.128;2022-08-20T12:14:50;2.33;;;1.40;;
6378;SDS011;3222;48.858;10.128;2022-08-20T12:17:17;2.20;;;1.17;;
6378;SDS011;3222;48.858;10.128;2022-08-20T12:19:52;1.33;;;1.23;;
6378;SDS011;3222;48.858;10.128;2022-08-20T12:22:19;1.23;;;1.00;;
6378;SDS011;3222;48.858;10.128;2022-08-20T12:24:45;2.60;;;1.00;;
6378;SDS011;3222;48.858;10.128;2022-08-20T12:27:12;1.00;;;1.00;;
6378;SDS011;3222;48.858;10.128;2022-08-20T12:29:43;1.57;;;1.20;;
6378;SDS011;3222;48.858;10.128;2022-08-20T12:32:10;1.20;;;1.07;;
6378;SDS011;3222;48.858;10.128;2022-08-20T12:34:38;1.47;;;1.20;;
6378;SDS011;3222;48.858;10.128;2022-08-20T12:37:10;2.03;;;1.27;;
6378;SDS011;3222;48.858;10.128;2022-08-20T12:39:42;2.13;;;1.30;;
6378;SDS011;3222;48.858;10.128;2022-08-20T12:42:11;1.30;;;1.20;;
6378;SDS011;3222;48.858;10.128;2022-08-20T12:44:37;1.10;;;1.10;;
6378;SDS011;3222;48.858;10.128;2022-08-20T12:47:13;1.30;;;1.20;;
6378;SDS011;3222;48.858;10.128;2022-08-20T12:49:42;3.10;;;1.50;;
6378;SDS011;3222;48.858;10.128;2022-08-20T12:52:13;2.30;;;1.53;;
6378;SDS011;3222;48.858;10.128;2022-08-20T12:54:39;1.90;;;1.80;;
6378;SDS011;3222;48.858;10.128;2022-08-20T12:57:05;2.10;;;2.00;;
6378;SDS011;3222;48.858;10.128;2022-08-20T12:59:31;2.00;;;1.90;;
6378;SDS011;3222;48.858;10.128;2022-08-20T13:01:57;3.03;;;2.10;;
6378;SDS011;3222;48.858;10.128;2022-08-20T13:04:23;1.80;;;1.70;;
6378;SDS011;3222;48.858;10.128;2022-08-20T13:06:49;2.13;;;1.97;;
6378;SDS011;3222;48.858;10.128;2022-08-20T13:09:15;2.50;;;1.50;;
6378;SDS011;3222;48.858;10.128;2022-08-20T13:11:41;2.97;;;1.70;;
6378;SDS011;3222;48.858;10.128;2022-08-20T13:14:07;2.47;;;1.77;;
6378;SDS011;3222;48.858;10.128;2022-08-20T13:16:32;1.40;;;1.30;;
6378;SDS011;3222;48.858;10.128;2022-08-20T13:18:59;3.83;;;1.70;;
6378;SDS011;3222;48.858;10.128;2022-08-20T13:21:24;1.57;;;1.47;;
6378;SDS011;3222;48.858;10.128;2022-08-20T13:23:50;3.67;;;1.60;;
6378;SDS011;3222;48.858;10.128;2022-08-20T13:26:16;4.40;;;2.37;;
6378;SDS011;3222;48.858;10.128;2022-08-20T13:28:41;1.70;;;1.60;;
6378;SDS011;3222;48.858;10.128;2022-08-20T13:31:07;1.70;;;1.60;;
6378;SDS011;3222;48.858;10.128;2022-08-20T13:33:33;1.63;;;1.53;;
6378;SDS011;3222;48.858;10.128;2022-08-20T13:35:58;1.60;;;1.50;;
6378;SDS011;3222;48.858;10.128;2022-08-20T13:38:24;2.00;;;1.90;;
6378;SDS011;3222;48.858;10.128;2022-08-20T13:40:50;2.70;;;2.50;;
6378;SDS011;3222;48.858;10.128;2022-08-20T13:43:16;4.10;;;3.70;;
6378;SDS011;3222;48.858;10.128;2022-08-20T13:45:41;3.17;;;2.67;;
6378;SDS011;3222;48.858;10.128;2022-08-20T13:48:07;2.67;;;2.47;;
6378;SDS011;3222;48.858;10.128;2022-08-20T13:50:34;1.80;;;1.70;;
6378;SDS011;3222;48.858;10.128;2022-08-20T13:53:00;2.33;;;1.90;;
6378;SDS011;3222;48.858;10.128;2022-08-20T13:55:26;1.57;;;1.47;;
6378;SDS011;3222;48.858;10.128;2022-08-20T13:57:53;1.00;;;1.00;;
6378;SDS011;3222;48.858;10.128;2022-08-20T14:00:21;0.90;;;0.90;;
6378;SDS011;3222;48.858;10.128;2022-08-20T14:02:49;0.90;;;0.90;;
6378;SDS011;3222;48.858;10.128;2022-08-20T14:05:15;0.90;;;0.90;;
6378;SDS011;3222;48.858;10.128;2022-08-20T14:07:41;1.63;;;0.90;;
6378;SDS011;3222;48.858;10.128;2022-08-20T14:10:09;1.97;;;0.90;;
6378;SDS011;3222;48.858;10.128;2022-08-20T14:12:37;0.80;;;0.80;;
6378;SDS011;3222;48.858;10.128;2022-08-20T14:15:04;1.50;;;1.10;;
6378;SDS011;3222;48.858;10.128;2022-08-20T14:17:31;1.20;;;0.87;;
6378;SDS011;3222;48.858;10.128;2022-08-20T14:20:00;1.23;;;0.80;;
6378;SDS011;3222;48.858;10.128;2022-08-20T14:22:28;3.83;;;0.83;;
6378;SDS011;3222;48.858;10.128;2022-08-20T14:24:53;0.90;;;0.80;;
6378;SDS011;3222;48.858;10.128;2022-08-20T14:27:21;0.70;;;0.70;;
6378;SDS011;3222;48.858;10.128;2022-08-20T14:29:48;0.80;;;0.80;;
6378;SDS011;3222;48.858;10.128;2022-08-20T14:32:14;0.93;;;0.90;;
6378;SDS011;3222;48.858;10.128;2022-08-20T14:34:40;0.80;;;0.70;;
6378;SDS011;3222;48.858;10.128;2022-08-20T14:39:37;0.80;;;0.80;;
6378;SDS011;3222;48.858;10.128;2022-08-20T14:42:03;0.83;;;0.80;;
6378;SDS011;3222;48.858;10.128;2022-08-20T14:44:29;1.00;;;0.90;;
6378;SDS011;3222;48.858;10.128;2022-08-20T14:46:55;1.60;;;0.90;;
6378;SDS011;3222;48.858;10.128;2022-08-20T14:49:21;1.63;;;0.90;;
6378;SDS011;3222;48.858;10.128;2022-08-20T14:51:47;0.70;;;0.70;;
6378;SDS011;3222;48.858;10.128;2022-08-20T14:54:12;0.90;;;0.90;;
6378;SDS011;3222;48.858;10.128;2022-08-20T14:56:38;0.90;;;0.90;;
6378;SDS011;3222;48.858;10.128;2022-08-20T14:59:04;1.20;;;1.07;;
6378;SDS011;3222;48.858;10.128;2022-08-20T15:01:29;1.87;;;1.03;;
6378;SDS011;3222;48.858;10.128;2022-08-20T15:03:55;1.00;;;0.90;;
6378;SDS011;3222;48.858;10.128;2022-08-20T15:06:21;1.33;;;0.90;;
6378;SDS011;3222;48.858;10.128;2022-08-20T15:08:46;1.10;;;1.03;;
6378;SDS011;3222;48.858;10.128;2022-08-20T15:11:12;1.77;;;0.90;;
6378;SDS011;3222;48.858;10.128;2022-08-20T15:13:38;1.00;;;1.00;;